createdAt,value
2023-01-26T00:01:00.562Z,-0.30
2023-01-26T00:02:32.178Z,-0.17
2023-01-26T00:04:03.962Z,-0.17
2023-01-26T00:05:36.854Z,-0.17
2023-01-26T00:07:08.401Z,-0.19
2023-01-26T00:08:40.301Z,-0.40
2023-01-26T00:10:12.340Z,-0.47
2023-01-26T00:11:45.327Z,-0.44
2023-01-26T00:13:18.727Z,-0.55
2023-01-26T00:14:50.365Z,-0.42
2023-01-26T00:16:22.035Z,-0.41
2023-01-26T00:17:53.867Z,-0.35
2023-01-26T00:19:25.526Z,-0.42
2023-01-26T00:20:57.824Z,-0.45
2023-01-26T00:22:29.413Z,-0.45
2023-01-26T00:24:01.111Z,-0.54
2023-01-26T00:25:32.717Z,-0.51
2023-01-26T00:27:05.776Z,-0.50
2023-01-26T00:28:37.386Z,-0.44
2023-01-26T00:30:10.161Z,-0.37
2023-01-26T00:31:41.946Z,-0.39
2023-01-26T00:33:13.526Z,-0.53
2023-01-26T00:34:45.129Z,-0.51
2023-01-26T00:36:16.699Z,-0.51
2023-01-26T00:37:48.357Z,-0.44
2023-01-26T00:39:20.086Z,-0.50
2023-01-26T00:40:51.739Z,-0.53
2023-01-26T00:42:24.677Z,-0.57
2023-01-26T00:43:56.461Z,-0.57
2023-01-26T00:45:28.101Z,-0.68
2023-01-26T00:46:59.726Z,-0.54
2023-01-26T00:48:31.298Z,-0.68
2023-01-26T00:50:03.001Z,-0.59
2023-01-26T00:51:34.560Z,-0.56
2023-01-26T00:53:06.125Z,-0.64
2023-01-26T00:54:37.700Z,-0.66
2023-01-26T00:56:09.339Z,-0.67
2023-01-26T00:57:42.323Z,-0.60
2023-01-26T00:59:13.877Z,-0.60
2023-01-26T01:00:45.488Z,-0.68
2023-01-26T01:02:17.139Z,-0.65
2023-01-26T01:03:50.383Z,-0.63
2023-01-26T01:05:21.981Z,-0.55
2023-01-26T01:06:53.550Z,-0.55
2023-01-26T01:08:25.111Z,-0.59
2023-01-26T01:09:56.692Z,-0.57
2023-01-26T01:11:28.262Z,-0.57
2023-01-26T01:13:01.223Z,-0.48
2023-01-26T01:14:32.853Z,-0.65
2023-01-26T01:16:05.700Z,-0.73
2023-01-26T01:17:37.431Z,-0.65
2023-01-26T01:19:09.193Z,-0.70
2023-01-26T01:20:40.890Z,-0.67
2023-01-26T01:22:12.494Z,-0.69
2023-01-26T01:23:44.086Z,-0.68
2023-01-26T01:25:15.850Z,-0.61
2023-01-26T01:26:47.408Z,-0.69
2023-01-26T01:28:20.352Z,-0.69
2023-01-26T01:29:52.023Z,-0.76
2023-01-26T01:31:23.763Z,-0.75
2023-01-26T01:32:55.436Z,-0.67
2023-01-26T01:34:27.065Z,-0.68
2023-01-26T01:35:58.883Z,-0.77
2023-01-26T01:37:30.504Z,-0.78
2023-01-26T01:39:02.077Z,-0.74
2023-01-26T01:40:33.750Z,-0.75
2023-01-26T01:42:05.459Z,-0.66
2023-01-26T01:43:38.378Z,-0.80
2023-01-26T01:45:35.389Z,-0.76
2023-01-26T01:47:09.310Z,-0.76
2023-01-26T01:48:45.186Z,-0.62
2023-01-26T01:50:16.983Z,-0.75
2023-01-26T01:51:50.907Z,-0.77
2023-01-26T01:53:27.946Z,-0.75
2023-01-26T01:55:02.064Z,-0.71
2023-01-26T01:56:33.671Z,-0.81
2023-01-26T01:58:05.273Z,-0.75
2023-01-26T01:59:38.234Z,-0.79
2023-01-26T02:01:09.919Z,-0.80
2023-01-26T02:02:41.949Z,-0.73
2023-01-26T02:04:13.907Z,-0.71
2023-01-26T02:05:50.366Z,-0.66
2023-01-26T02:07:21.973Z,-0.78
2023-01-26T02:08:54.354Z,-0.67
2023-01-26T02:10:26.010Z,-0.64
2023-01-26T02:11:57.586Z,-0.60
2023-01-26T02:13:29.152Z,-0.57
2023-01-26T02:15:02.432Z,-0.50
2023-01-26T02:16:34.337Z,-0.58
2023-01-26T02:18:06.046Z,-0.67
2023-01-26T02:19:42.915Z,-0.72
2023-01-26T02:21:15.793Z,-0.76
2023-01-26T02:22:50.630Z,-0.73
2023-01-26T02:24:25.110Z,-0.76
2023-01-26T02:26:11.141Z,-0.80
2023-01-26T02:27:42.772Z,-0.75
2023-01-26T02:29:14.296Z,-0.77
2023-01-26T02:30:45.906Z,-0.75
2023-01-26T02:32:17.514Z,-0.76
2023-01-26T02:33:49.157Z,-0.72
2023-01-26T02:35:20.761Z,-0.70
2023-01-26T02:36:58.919Z,-0.74
2023-01-26T02:38:33.880Z,-0.67
2023-01-26T02:40:07.625Z,-0.79
2023-01-26T02:41:58.972Z,-0.90
2023-01-26T02:43:30.539Z,-0.77
2023-01-26T02:45:02.161Z,-0.71
2023-01-26T02:46:33.796Z,-0.74
2023-01-26T02:48:06.477Z,-0.65
2023-01-26T02:49:47.025Z,-0.59
2023-01-26T02:51:18.633Z,-0.71
2023-01-26T02:52:50.328Z,-0.74
2023-01-26T02:54:45.039Z,-0.74
2023-01-26T02:56:16.595Z,-0.75
2023-01-26T02:57:49.721Z,-0.76
2023-01-26T02:59:21.313Z,-0.70
2023-01-26T03:00:53.218Z,-0.74
2023-01-26T03:02:24.895Z,-0.84
2023-01-26T03:03:56.486Z,-0.65
2023-01-26T03:05:28.177Z,-0.68
2023-01-26T03:06:59.989Z,-0.59
2023-01-26T03:08:31.552Z,-0.61
2023-01-26T03:10:03.794Z,-0.65
2023-01-26T03:11:41.985Z,-0.77
2023-01-26T03:13:14.971Z,-0.84
2023-01-26T03:14:46.576Z,-0.75
2023-01-26T03:16:18.483Z,-0.77
2023-01-26T03:17:50.167Z,-0.83
2023-01-26T03:19:40.434Z,-0.75
2023-01-26T03:21:31.254Z,-0.82
2023-01-26T03:23:21.709Z,-0.83
2023-01-26T03:25:12.164Z,-0.85
2023-01-26T03:27:02.554Z,-0.91
2023-01-26T03:28:35.502Z,-0.90
2023-01-26T03:30:07.984Z,-0.89
2023-01-26T03:31:39.604Z,-0.84
2023-01-26T03:33:11.213Z,-0.81
2023-01-26T03:34:43.050Z,-0.74
2023-01-26T03:36:14.611Z,-0.83
2023-01-26T03:37:46.286Z,-0.87
2023-01-26T03:39:36.396Z,-0.82
2023-01-26T03:41:26.813Z,-0.78
2023-01-26T03:43:17.069Z,-0.77
2023-01-26T03:45:08.559Z,-0.90
2023-01-26T03:46:58.901Z,-0.83
2023-01-26T03:48:49.361Z,-0.89
2023-01-26T03:50:39.840Z,-0.84
2023-01-26T03:52:30.254Z,-0.89
2023-01-26T03:54:20.639Z,-0.92
2023-01-26T03:56:11.184Z,-0.77
2023-01-26T03:57:42.766Z,-0.69
2023-01-26T03:59:15.483Z,-0.71
2023-01-26T04:00:49.585Z,-0.80
2023-01-26T04:02:39.633Z,-0.83
2023-01-26T04:04:30.099Z,-0.84
2023-01-26T04:06:20.518Z,-0.86
2023-01-26T04:08:10.804Z,-0.85
2023-01-26T04:09:42.436Z,-0.93
2023-01-26T04:11:14.013Z,-0.99
2023-01-26T04:12:47.138Z,-0.93
2023-01-26T04:14:49.362Z,-0.86
2023-01-26T04:16:41.528Z,-0.81
2023-01-26T04:18:32.040Z,-0.84
2023-01-26T04:20:23.340Z,-0.86
2023-01-26T04:21:54.937Z,-0.84
2023-01-26T04:23:26.492Z,-0.83
2023-01-26T04:24:58.168Z,-0.82
2023-01-26T04:26:36.460Z,-0.84
2023-01-26T04:28:08.028Z,-0.77
2023-01-26T04:29:39.609Z,-0.76
2023-01-26T04:31:11.259Z,-0.77
2023-01-26T04:32:44.235Z,-0.68
2023-01-26T04:34:16.123Z,-0.74
2023-01-26T04:35:47.683Z,-0.68
2023-01-26T04:37:19.252Z,-0.73
2023-01-26T04:38:50.929Z,-0.73
2023-01-26T04:40:22.518Z,-0.65
2023-01-26T04:41:54.096Z,-0.79
2023-01-26T04:43:25.714Z,-0.76
2023-01-26T04:44:57.305Z,-0.63
2023-01-26T04:46:29.064Z,-0.66
2023-01-26T04:48:01.996Z,-0.79
2023-01-26T04:49:33.568Z,-0.88
2023-01-26T04:51:07.627Z,-0.81
2023-01-26T04:52:39.187Z,-0.85
2023-01-26T04:54:10.843Z,-0.90
2023-01-26T04:55:42.425Z,-0.87
2023-01-26T04:57:14.070Z,-0.75
2023-01-26T04:58:45.651Z,-0.75
2023-01-26T05:00:17.802Z,-0.78
2023-01-26T05:01:49.440Z,-0.77
2023-01-26T05:03:22.520Z,-0.76
2023-01-26T05:04:54.096Z,-0.76
2023-01-26T05:06:25.738Z,-0.76
2023-01-26T05:07:57.309Z,-0.78
2023-01-26T05:09:28.878Z,-0.67
2023-01-26T05:11:00.525Z,-0.87
2023-01-26T05:12:35.148Z,-0.90
2023-01-26T05:14:06.709Z,-0.75
2023-01-26T05:15:38.432Z,-0.70
2023-01-26T05:17:10.023Z,-0.78
2023-01-26T05:18:43.031Z,-0.83
2023-01-26T05:20:14.875Z,-0.96
2023-01-26T05:21:46.445Z,-0.87
2023-01-26T05:23:18.062Z,-0.89
2023-01-26T05:24:49.708Z,-0.85
2023-01-26T05:26:21.279Z,-0.76
2023-01-26T05:27:53.713Z,-0.66
2023-01-26T05:29:25.279Z,-0.82
2023-01-26T05:30:56.912Z,-0.78
2023-01-26T05:32:28.597Z,-0.88
2023-01-26T05:34:01.523Z,-0.80
2023-01-26T05:35:33.259Z,-0.84
2023-01-26T05:37:04.953Z,-0.98
2023-01-26T05:38:36.594Z,-0.93
2023-01-26T05:40:09.868Z,-0.88
2023-01-26T05:41:41.635Z,-0.78
2023-01-26T05:43:13.198Z,-0.97
2023-01-26T05:44:44.899Z,-0.99
2023-01-26T05:46:16.534Z,-0.97
2023-01-26T05:47:48.689Z,-0.99
2023-01-26T05:49:21.611Z,-0.85
2023-01-26T05:50:55.681Z,-0.99
2023-01-26T05:52:27.291Z,-0.93
2023-01-26T05:53:58.857Z,-0.96
2023-01-26T05:55:30.415Z,-0.95
2023-01-26T05:57:01.983Z,-1.05
2023-01-26T05:58:33.568Z,-0.95
2023-01-26T06:00:06.521Z,-1.06
2023-01-26T06:01:39.330Z,-1.05
2023-01-26T06:03:10.914Z,-1.00
2023-01-26T06:04:43.858Z,-1.00
2023-01-26T06:06:15.411Z,-1.03
2023-01-26T06:07:46.980Z,-1.01
2023-01-26T06:09:18.577Z,-0.97
2023-01-26T06:10:50.126Z,-1.02
2023-01-26T06:12:21.985Z,-1.00
2023-01-26T06:13:53.595Z,-1.06
2023-01-26T06:15:25.301Z,-1.07
2023-01-26T06:16:56.975Z,-1.10
2023-01-26T06:18:28.560Z,-0.98
2023-01-26T06:20:01.576Z,-1.00
2023-01-26T06:21:33.148Z,-1.09
2023-01-26T06:23:05.614Z,-1.06
2023-01-26T06:24:37.257Z,-1.01
2023-01-26T06:26:10.809Z,-1.00
2023-01-26T06:27:42.754Z,-1.09
2023-01-26T06:29:14.629Z,-1.02
2023-01-26T06:30:46.323Z,-1.08
2023-01-26T06:32:17.951Z,-1.10
2023-01-26T06:33:49.862Z,-1.09
2023-01-26T06:35:22.810Z,-1.10
2023-01-26T06:36:54.762Z,-1.10
2023-01-26T06:38:26.332Z,-1.13
2023-01-26T06:39:57.960Z,-1.08
2023-01-26T06:41:29.598Z,-1.09
2023-01-26T06:43:01.157Z,-1.13
2023-01-26T06:44:32.730Z,-1.17
2023-01-26T06:46:05.051Z,-1.14
2023-01-26T06:47:36.997Z,-1.07
2023-01-26T06:49:08.978Z,-1.07
2023-01-26T06:50:41.953Z,-1.09
2023-01-26T06:52:26.262Z,-1.12
2023-01-26T06:53:58.180Z,-1.07
2023-01-26T06:55:32.274Z,-1.05
2023-01-26T06:57:04.019Z,-1.13
2023-01-26T06:58:35.585Z,-1.07
2023-01-26T07:00:09.225Z,-1.07
2023-01-26T07:01:43.035Z,-1.02
2023-01-26T07:03:14.629Z,-1.01
2023-01-26T07:04:46.491Z,-1.12
2023-01-26T07:06:19.449Z,-1.13
2023-01-26T07:07:51.052Z,-1.06
2023-01-26T07:09:22.701Z,-1.07
2023-01-26T07:10:54.306Z,-0.99
2023-01-26T07:12:26.048Z,-0.99
2023-01-26T07:13:57.832Z,-1.09
2023-01-26T07:15:29.500Z,-0.99
2023-01-26T07:17:01.592Z,-0.98
2023-01-26T07:18:33.172Z,-0.95
2023-01-26T07:20:05.757Z,-0.94
2023-01-26T07:21:39.323Z,-0.93
2023-01-26T07:23:11.295Z,-1.02
2023-01-26T07:24:42.930Z,-1.07
2023-01-26T07:26:14.715Z,-0.92
2023-01-26T07:27:46.280Z,-1.03
2023-01-26T07:29:17.881Z,-1.09
2023-01-26T07:30:49.526Z,-1.07
2023-01-26T07:32:21.296Z,-0.98
2023-01-26T07:33:52.891Z,-0.87
2023-01-26T07:35:24.513Z,-0.99
2023-01-26T07:36:57.504Z,-0.95
2023-01-26T07:38:29.197Z,-1.04
2023-01-26T07:40:00.772Z,-1.04
2023-01-26T07:41:32.521Z,-1.05
2023-01-26T07:43:04.088Z,-1.05
2023-01-26T07:44:35.685Z,-1.08
2023-01-26T07:46:07.385Z,-1.11
2023-01-26T07:47:39.234Z,-1.04
2023-01-26T07:49:11.893Z,-1.02
2023-01-26T07:50:45.211Z,-1.04
2023-01-26T07:52:18.126Z,-0.87
2023-01-26T07:53:50.052Z,-0.87
2023-01-26T07:55:23.112Z,-0.89
2023-01-26T07:56:54.866Z,-0.98
2023-01-26T07:58:26.445Z,-0.95
2023-01-26T07:59:58.044Z,-0.87
2023-01-26T08:01:29.667Z,-0.85
2023-01-26T08:03:01.250Z,-0.88
2023-01-26T08:04:32.827Z,-0.93
2023-01-26T08:06:05.119Z,-0.83
2023-01-26T08:07:38.161Z,-0.87
2023-01-26T08:09:09.996Z,-0.87
2023-01-26T08:10:41.568Z,-0.99
2023-01-26T08:12:13.409Z,-0.98
2023-01-26T08:13:45.085Z,-0.92
2023-01-26T08:15:16.793Z,-0.87
2023-01-26T08:16:48.464Z,-0.84
2023-01-26T08:18:20.053Z,-0.92
2023-01-26T08:19:52.404Z,-0.92
2023-01-26T08:21:23.991Z,-0.81
2023-01-26T08:22:58.683Z,-0.90
2023-01-26T08:24:31.372Z,-0.90
2023-01-26T08:26:03.158Z,-0.95
2023-01-26T08:27:34.777Z,-0.97
2023-01-26T08:29:06.465Z,-0.91
2023-01-26T08:30:38.156Z,-0.95
2023-01-26T08:32:09.792Z,-0.92
2023-01-26T08:33:42.108Z,-0.93
2023-01-26T08:35:13.812Z,-0.96
2023-01-26T08:36:45.389Z,-0.90
2023-01-26T08:38:18.429Z,-0.91
2023-01-26T08:39:50.031Z,-0.87
2023-01-26T08:41:21.658Z,-0.85
2023-01-26T08:42:54.142Z,-0.76
2023-01-26T08:44:25.740Z,-0.68
2023-01-26T08:45:57.488Z,-0.68
2023-01-26T08:47:29.144Z,-0.78
2023-01-26T08:49:00.871Z,-0.84
2023-01-26T08:50:32.460Z,-0.82
2023-01-26T08:52:04.966Z,-0.83
2023-01-26T08:53:37.988Z,-0.82
2023-01-26T08:55:10.109Z,-0.75
2023-01-26T08:56:41.676Z,-0.79
2023-01-26T08:58:13.393Z,-0.78
2023-01-26T08:59:45.073Z,-0.84
2023-01-26T09:01:16.881Z,-0.82
2023-01-26T09:02:49.318Z,-0.83
2023-01-26T09:04:20.971Z,-0.79
2023-01-26T09:05:52.573Z,-0.78
2023-01-26T09:07:24.237Z,-0.77
2023-01-26T09:08:57.600Z,-0.74
2023-01-26T09:10:29.207Z,-0.73
2023-01-26T09:12:00.791Z,-0.70
2023-01-26T09:13:32.371Z,-0.73
2023-01-26T09:15:04.725Z,-0.81
2023-01-26T09:16:36.347Z,-0.73
2023-01-26T09:18:07.927Z,-0.75
2023-01-26T09:19:39.517Z,-0.68
2023-01-26T09:21:12.459Z,-0.69
2023-01-26T09:22:44.254Z,-0.75
2023-01-26T09:24:17.202Z,-0.83
2023-01-26T09:25:52.819Z,-0.74
2023-01-26T09:27:24.462Z,-0.63
2023-01-26T09:28:56.043Z,-0.76
2023-01-26T09:30:27.827Z,-0.78
2023-01-26T09:31:59.895Z,-0.74
2023-01-26T09:33:31.603Z,-0.64
2023-01-26T09:35:03.376Z,-0.52
2023-01-26T09:36:34.970Z,-0.60
2023-01-26T09:38:06.616Z,-0.51
2023-01-26T09:39:39.570Z,-0.44
2023-01-26T09:41:20.195Z,-0.63
2023-01-26T09:42:59.307Z,-0.57
2023-01-26T09:44:31.866Z,-0.51
2023-01-26T09:46:12.549Z,-0.50
2023-01-26T09:47:53.535Z,-0.47
2023-01-26T09:49:26.773Z,-0.40
2023-01-26T09:51:01.780Z,-0.26
2023-01-26T09:52:33.936Z,-0.34
2023-01-26T09:54:09.374Z,-0.31
2023-01-26T09:55:42.705Z,-0.23
2023-01-26T09:57:15.362Z,-0.22
2023-01-26T09:58:49.113Z,-0.39
2023-01-26T10:00:22.321Z,-0.41
2023-01-26T10:01:56.264Z,-0.43
2023-01-26T10:03:31.217Z,-0.46
2023-01-26T10:05:06.323Z,-0.54
2023-01-26T10:06:37.936Z,-0.63
2023-01-26T10:08:11.039Z,-0.55
2023-01-26T10:09:46.059Z,-0.59
2023-01-26T10:11:21.619Z,-0.53
2023-01-26T10:12:53.264Z,-0.53
2023-01-26T10:14:30.586Z,-0.57
2023-01-26T10:16:03.984Z,-0.53
2023-01-26T10:17:36.923Z,-0.43
2023-01-26T10:19:12.393Z,-0.38
2023-01-26T10:20:45.410Z,-0.37
2023-01-26T10:22:20.326Z,-0.34
2023-01-26T10:23:51.924Z,-0.36
2023-01-26T10:25:27.895Z,-0.29
2023-01-26T10:27:01.149Z,-0.25
2023-01-26T10:28:35.219Z,-0.24
2023-01-26T10:30:12.432Z,-0.22
2023-01-26T10:31:44.231Z,-0.23
2023-01-26T10:33:18.481Z,-0.19
2023-01-26T10:34:50.273Z,-0.20
2023-01-26T10:36:22.160Z,-0.31
2023-01-26T10:37:53.814Z,-0.26
2023-01-26T10:39:25.462Z,-0.19
2023-01-26T10:40:57.113Z,-0.22
2023-01-26T10:42:31.017Z,-0.28
2023-01-26T10:44:04.919Z,-0.28
2023-01-26T10:45:44.662Z,-0.30
2023-01-26T10:47:17.429Z,-0.31
2023-01-26T10:48:51.366Z,-0.23
2023-01-26T10:50:24.062Z,-0.15
2023-01-26T10:52:08.776Z,-0.31
2023-01-26T10:53:40.405Z,-0.43
2023-01-26T10:55:13.655Z,-0.39
2023-01-26T10:56:46.029Z,-0.28
2023-01-26T10:58:41.797Z,-0.24
2023-01-26T11:00:22.397Z,-0.20
2023-01-26T11:01:55.427Z,-0.12
2023-01-26T11:03:27.740Z,-0.14
2023-01-26T11:05:16.242Z,-0.20
2023-01-26T11:06:47.840Z,-0.19
2023-01-26T11:08:37.423Z,-0.25
2023-01-26T11:10:33.356Z,-0.29
2023-01-26T11:12:06.035Z,-0.29
2023-01-26T11:13:38.985Z,-0.25
2023-01-26T11:15:16.153Z,-0.20
2023-01-26T11:16:50.162Z,-0.18
2023-01-26T11:18:28.104Z,-0.19
2023-01-26T11:20:07.786Z,-0.24
2023-01-26T11:21:40.649Z,-0.20
2023-01-26T11:23:16.154Z,-0.26
2023-01-26T11:24:51.415Z,-0.27
2023-01-26T11:27:00.810Z,-0.26
2023-01-26T11:28:37.784Z,-0.14
2023-01-26T11:30:36.856Z,-0.10
2023-01-26T11:32:13.666Z,-0.12
2023-01-26T11:33:50.825Z,-0.16
2023-01-26T11:35:28.434Z,-0.25
2023-01-26T11:37:06.449Z,-0.19
2023-01-26T11:38:39.619Z,-0.16
2023-01-26T11:40:30.225Z,-0.21
2023-01-26T11:42:12.842Z,-0.26
2023-01-26T11:44:13.421Z,-0.33
2023-01-26T11:46:03.887Z,-0.19
2023-01-26T11:47:53.691Z,-0.24
2023-01-26T11:49:47.128Z,-0.23
2023-01-26T11:51:22.794Z,-0.26
2023-01-26T11:53:27.828Z,-0.28
2023-01-26T11:55:17.070Z,-0.24
2023-01-26T11:56:50.218Z,-0.13
2023-01-26T11:58:27.970Z,-0.26
2023-01-26T12:00:01.122Z,-0.20
2023-01-26T12:01:37.550Z,-0.25
2023-01-26T12:03:15.547Z,-0.29
2023-01-26T12:04:48.072Z,-0.33
2023-01-26T12:06:28.865Z,-0.38
2023-01-26T12:08:02.207Z,-0.29
2023-01-26T12:09:37.985Z,-0.34
2023-01-26T12:11:22.575Z,-0.30
2023-01-26T12:12:55.906Z,-0.32
2023-01-26T12:14:28.437Z,-0.40
2023-01-26T12:16:01.771Z,-0.38
2023-01-26T12:17:42.291Z,-0.32
2023-01-26T12:19:18.555Z,-0.33
2023-01-26T12:20:50.840Z,-0.30
2023-01-26T12:22:24.715Z,-0.29
2023-01-26T12:23:58.165Z,-0.46
2023-01-26T12:25:32.478Z,-0.50
2023-01-26T12:27:04.570Z,-0.48
2023-01-26T12:28:38.844Z,-0.43
2023-01-26T12:30:29.922Z,-0.48
2023-01-26T12:32:04.205Z,-0.42
2023-01-26T12:33:37.107Z,-0.39
2023-01-26T12:35:10.939Z,-0.48
2023-01-26T12:36:45.055Z,-0.44
2023-01-26T12:38:18.736Z,-0.35
2023-01-26T12:39:52.182Z,-0.25
2023-01-26T12:41:28.236Z,-0.26
2023-01-26T12:43:06.551Z,-0.36
2023-01-26T12:44:39.211Z,-0.42
2023-01-26T12:46:10.812Z,-0.41
2023-01-26T12:47:43.810Z,-0.32
2023-01-26T12:49:18.272Z,-0.23
2023-01-26T12:50:51.143Z,-0.18
2023-01-26T12:52:25.342Z,-0.36
2023-01-26T12:53:58.686Z,-0.43
2023-01-26T12:55:32.133Z,-0.32
2023-01-26T12:57:04.958Z,-0.33
2023-01-26T12:58:38.079Z,-0.28
2023-01-26T13:00:18.864Z,-0.22
2023-01-26T13:01:50.513Z,-0.40
2023-01-26T13:03:24.113Z,-0.33
2023-01-26T13:04:58.161Z,-0.44
2023-01-26T13:06:29.737Z,-0.36
2023-01-26T13:08:34.660Z,-0.39
2023-01-26T13:10:25.251Z,-0.35
2023-01-26T13:11:58.155Z,-0.41
2023-01-26T13:13:31.089Z,-0.56
2023-01-26T13:15:03.479Z,-0.37
2023-01-26T13:16:36.063Z,-0.34
2023-01-26T13:18:10.404Z,-0.41
2023-01-26T13:19:51.946Z,-0.29
2023-01-26T13:21:28.311Z,-0.27
2023-01-26T13:22:59.972Z,-0.27
2023-01-26T13:24:42.312Z,-0.39
2023-01-26T13:26:29.616Z,-0.38
2023-01-26T13:28:02.521Z,-0.26
2023-01-26T13:29:34.512Z,-0.23
2023-01-26T13:31:06.696Z,-0.20
2023-01-26T13:33:04.427Z,-0.22
2023-01-26T13:34:37.277Z,-0.25
2023-01-26T13:36:13.335Z,-0.25
2023-01-26T13:37:48.336Z,-0.41
2023-01-26T13:39:24.518Z,-0.46
2023-01-26T13:40:56.191Z,-0.26
2023-01-26T13:42:29.706Z,-0.23
2023-01-26T13:44:08.510Z,-0.35
2023-01-26T13:45:44.133Z,-0.30
2023-01-26T13:47:18.948Z,-0.42
2023-01-26T13:48:52.667Z,-0.54
2023-01-26T13:50:29.561Z,-0.58
2023-01-26T13:52:01.135Z,-0.48
2023-01-26T13:53:38.090Z,-0.55
2023-01-26T13:55:12.983Z,-0.41
2023-01-26T13:56:59.786Z,-0.47
2023-01-26T13:58:31.365Z,-0.37
2023-01-26T14:00:03.499Z,-0.38
2023-01-26T14:01:42.139Z,-0.50
2023-01-26T14:03:21.582Z,-0.46
2023-01-26T14:04:55.332Z,-0.45
2023-01-26T14:06:27.024Z,-0.35
2023-01-26T14:07:58.672Z,-0.32
2023-01-26T14:09:32.675Z,-0.44
2023-01-26T14:11:07.471Z,-0.47
2023-01-26T14:12:42.223Z,-0.39
2023-01-26T14:14:20.348Z,-0.40
2023-01-26T14:15:56.427Z,-0.52
2023-01-26T14:17:29.353Z,-0.61
2023-01-26T14:19:05.807Z,-0.59
2023-01-26T14:20:39.434Z,-0.64
2023-01-26T14:22:12.679Z,-0.61
2023-01-26T14:23:44.268Z,-0.55
2023-01-26T14:25:23.152Z,-0.50
2023-01-26T14:26:54.807Z,-0.49
2023-01-26T14:28:28.418Z,-0.53
2023-01-26T14:30:00.150Z,-0.59
2023-01-26T14:31:32.291Z,-0.52
2023-01-26T14:33:05.087Z,-0.52
2023-01-26T14:34:36.638Z,-0.53
2023-01-26T14:36:13.871Z,-0.64
2023-01-26T14:37:45.492Z,-0.65
2023-01-26T14:39:18.143Z,-0.69
2023-01-26T14:40:51.516Z,-0.70
2023-01-26T14:42:23.079Z,-0.63
2023-01-26T14:43:58.563Z,-0.46
2023-01-26T14:45:31.818Z,-0.49
2023-01-26T14:47:04.615Z,-0.54
2023-01-26T14:48:37.881Z,-0.50
2023-01-26T14:50:12.837Z,-0.55
2023-01-26T14:51:44.697Z,-0.53
2023-01-26T14:53:17.483Z,-0.60
2023-01-26T14:54:50.253Z,-0.42
2023-01-26T14:56:25.694Z,-0.47
2023-01-26T14:57:57.339Z,-0.42
2023-01-26T14:59:32.538Z,-0.39
2023-01-26T15:01:04.864Z,-0.36
2023-01-26T15:02:37.467Z,-0.50
2023-01-26T15:04:17.875Z,-0.63
2023-01-26T15:05:49.551Z,-0.71
2023-01-26T15:07:28.658Z,-0.71
2023-01-26T15:09:02.156Z,-0.74
2023-01-26T15:10:35.161Z,-0.64
2023-01-26T15:12:16.857Z,-0.61
2023-01-26T15:13:49.379Z,-0.56
2023-01-26T15:15:20.948Z,-0.65
2023-01-26T15:16:52.931Z,-0.59
2023-01-26T15:18:29.718Z,-0.67
2023-01-26T15:20:01.554Z,-0.63
2023-01-26T15:21:34.054Z,-0.80
2023-01-26T15:23:18.490Z,-0.75
2023-01-26T15:25:00.262Z,-0.72
2023-01-26T15:26:32.382Z,-0.72
2023-01-26T15:28:05.378Z,-0.71
2023-01-26T15:29:36.950Z,-0.70
2023-01-26T15:31:08.645Z,-0.67
2023-01-26T15:32:40.427Z,-0.64
2023-01-26T15:34:28.852Z,-0.58
2023-01-26T15:36:00.415Z,-0.67
2023-01-26T15:37:32.580Z,-0.68
2023-01-26T15:39:13.898Z,-0.67
2023-01-26T15:40:45.533Z,-0.70
2023-01-26T15:42:21.457Z,-0.66
2023-01-26T15:43:54.537Z,-0.73
2023-01-26T15:45:26.209Z,-0.76
2023-01-26T15:46:59.185Z,-0.74
2023-01-26T15:48:34.235Z,-0.73
2023-01-26T15:50:08.198Z,-0.64
2023-01-26T15:51:42.796Z,-0.54
2023-01-26T15:53:14.756Z,-0.56
2023-01-26T15:54:46.332Z,-0.56
2023-01-26T15:56:18.056Z,-0.55
2023-01-26T15:57:49.660Z,-0.54
2023-01-26T15:59:22.607Z,-0.52
2023-01-26T16:00:54.372Z,-0.57
2023-01-26T16:02:28.125Z,-0.52
2023-01-26T16:03:59.924Z,-0.48
2023-01-26T16:05:31.621Z,-0.54
2023-01-26T16:07:03.195Z,-0.50
2023-01-26T16:08:34.780Z,-0.43
2023-01-26T16:10:07.462Z,-0.55
2023-01-26T16:11:43.533Z,-0.55
2023-01-26T16:13:19.154Z,-0.61
2023-01-26T16:14:52.103Z,-0.67
2023-01-26T16:16:27.684Z,-0.80
2023-01-26T16:17:59.368Z,-0.69
2023-01-26T16:19:35.545Z,-0.66
2023-01-26T16:21:14.621Z,-0.71
2023-01-26T16:22:46.175Z,-0.66
2023-01-26T16:24:17.760Z,-0.63
2023-01-26T16:25:49.717Z,-0.65
2023-01-26T16:27:21.669Z,-0.56
2023-01-26T16:28:53.510Z,-0.48
2023-01-26T16:30:26.566Z,-0.53
2023-01-26T16:31:58.309Z,-0.61
2023-01-26T16:33:29.968Z,-0.59
2023-01-26T16:35:01.592Z,-0.64
2023-01-26T16:36:33.255Z,-0.70
2023-01-26T16:38:07.236Z,-0.57
2023-01-26T16:39:38.795Z,-0.52
2023-01-26T16:41:14.170Z,-0.55
2023-01-26T16:42:46.888Z,-0.64
2023-01-26T16:44:19.594Z,-0.64
2023-01-26T16:45:52.810Z,-0.58
2023-01-26T16:47:24.413Z,-0.54
2023-01-26T16:48:56.211Z,-0.67
2023-01-26T16:50:28.481Z,-0.77
2023-01-26T16:52:00.828Z,-0.64
2023-01-26T16:53:35.973Z,-0.66
2023-01-26T16:55:12.819Z,-0.56
2023-01-26T16:56:45.129Z,-0.55
2023-01-26T16:58:17.051Z,-0.56
2023-01-26T16:59:48.672Z,-0.51
2023-01-26T17:01:22.800Z,-0.50
2023-01-26T17:02:54.463Z,-0.79
2023-01-26T17:04:26.090Z,-0.74
2023-01-26T17:05:57.736Z,-0.82
2023-01-26T17:07:29.378Z,-0.78
2023-01-26T17:09:00.992Z,-0.71
2023-01-26T17:10:32.679Z,-0.65
2023-01-26T17:12:04.794Z,-0.70
2023-01-26T17:13:36.560Z,-0.61
2023-01-26T17:15:10.594Z,-0.58
2023-01-26T17:16:43.732Z,-0.58
2023-01-26T17:18:15.668Z,-0.87
2023-01-26T17:19:47.294Z,-0.75
2023-01-26T17:21:19.385Z,-0.83
2023-01-26T17:22:51.069Z,-0.96
2023-01-26T17:24:22.718Z,-1.00
2023-01-26T17:25:57.411Z,-0.80
2023-01-26T17:27:28.999Z,-0.71
2023-01-26T17:29:00.690Z,-0.71
2023-01-26T17:30:32.589Z,-0.66
2023-01-26T17:32:05.580Z,-0.79
2023-01-26T17:33:37.189Z,-0.81
2023-01-26T17:35:09.231Z,-0.76
2023-01-26T17:36:40.875Z,-0.92
2023-01-26T17:38:12.520Z,-0.80
2023-01-26T17:39:44.160Z,-0.84
2023-01-26T17:41:15.777Z,-0.92
2023-01-26T17:42:47.437Z,-1.01
2023-01-26T17:44:19.015Z,-0.87
2023-01-26T17:45:50.728Z,-1.04
2023-01-26T17:47:24.440Z,-0.99
2023-01-26T17:48:56.089Z,-0.75
2023-01-26T17:50:27.672Z,-0.76
2023-01-26T17:51:59.264Z,-0.99
2023-01-26T17:53:30.887Z,-0.92
2023-01-26T17:55:05.160Z,-0.95
2023-01-26T17:56:36.714Z,-1.06
2023-01-26T17:58:11.279Z,-1.04
2023-01-26T17:59:42.880Z,-1.13
2023-01-26T18:01:14.612Z,-1.07
2023-01-26T18:02:47.666Z,-0.96
2023-01-26T18:04:19.270Z,-0.93
2023-01-26T18:05:51.718Z,-0.97
2023-01-26T18:07:23.686Z,-0.92
2023-01-26T18:08:55.361Z,-0.89
2023-01-26T18:10:30.374Z,-0.88
2023-01-26T18:12:01.949Z,-0.81
2023-01-26T18:13:33.655Z,-0.81
2023-01-26T18:15:06.382Z,-0.89
2023-01-26T18:16:38.158Z,-0.97
2023-01-26T18:18:11.828Z,-0.84
2023-01-26T18:19:43.428Z,-0.92
2023-01-26T18:21:16.975Z,-0.80
2023-01-26T18:22:48.588Z,-0.68
2023-01-26T18:24:20.326Z,-0.60
2023-01-26T18:25:52.607Z,-0.71
2023-01-26T18:27:24.254Z,-0.79
2023-01-26T18:28:55.931Z,-1.01
2023-01-26T18:30:27.643Z,-0.92
2023-01-26T18:31:59.440Z,-0.87
2023-01-26T18:33:32.412Z,-0.90
2023-01-26T18:35:04.490Z,-0.76
2023-01-26T18:36:36.198Z,-0.76
2023-01-26T18:38:07.885Z,-0.90
2023-01-26T18:39:39.493Z,-0.86
2023-01-26T18:41:11.208Z,-0.74
2023-01-26T18:42:42.755Z,-0.72
2023-01-26T18:44:14.335Z,-0.75
2023-01-26T18:45:46.081Z,-0.69
2023-01-26T18:47:17.652Z,-0.85
2023-01-26T18:48:52.118Z,-1.03
2023-01-26T18:50:23.761Z,-1.10
2023-01-26T18:51:55.463Z,-0.99
2023-01-26T18:53:27.128Z,-0.96
2023-01-26T18:54:58.820Z,-1.08
2023-01-26T18:56:31.292Z,-1.15
2023-01-26T18:58:02.890Z,-1.08
2023-01-26T18:59:34.464Z,-1.10
2023-01-26T19:01:09.893Z,-1.09
2023-01-26T19:02:41.556Z,-1.13
2023-01-26T19:04:17.172Z,-1.12
2023-01-26T19:05:49.753Z,-0.93
2023-01-26T19:07:21.343Z,-0.84
2023-01-26T19:08:57.443Z,-0.77
2023-01-26T19:10:29.035Z,-0.85
2023-01-26T19:12:02.119Z,-0.94
2023-01-26T19:13:33.938Z,-0.97
2023-01-26T19:15:07.221Z,-1.07
2023-01-26T19:16:38.833Z,-1.09
2023-01-26T19:18:10.436Z,-1.11
2023-01-26T19:19:43.467Z,-1.13
2023-01-26T19:21:15.102Z,-1.13
2023-01-26T19:22:46.835Z,-1.08
2023-01-26T19:24:18.505Z,-1.13
2023-01-26T19:25:50.169Z,-1.13
2023-01-26T19:27:21.750Z,-1.07
2023-01-26T19:28:53.995Z,-1.13
2023-01-26T19:30:25.625Z,-1.10
2023-01-26T19:31:59.730Z,-1.16
2023-01-26T19:33:31.691Z,-1.14
2023-01-26T19:35:05.533Z,-1.18
2023-01-26T19:36:37.137Z,-1.18
2023-01-26T19:38:08.702Z,-1.17
2023-01-26T19:39:40.282Z,-1.08
2023-01-26T19:41:12.330Z,-1.12
2023-01-26T19:42:43.917Z,-1.15
2023-01-26T19:44:15.532Z,-1.17
2023-01-26T19:45:48.368Z,-1.17
2023-01-26T19:47:20.099Z,-1.18
2023-01-26T19:48:51.687Z,-1.12
2023-01-26T19:50:24.784Z,-1.09
2023-01-26T19:51:56.595Z,-1.18
2023-01-26T19:53:28.187Z,-1.11
2023-01-26T19:54:59.767Z,-1.20
2023-01-26T19:56:32.193Z,-1.21
2023-01-26T19:58:03.855Z,-1.16
2023-01-26T19:59:35.482Z,-1.20
2023-01-26T20:01:08.205Z,-1.14
2023-01-26T20:02:39.895Z,-1.20
2023-01-26T20:04:13.043Z,-1.18
2023-01-26T20:05:46.034Z,-1.13
2023-01-26T20:07:17.645Z,-1.07
2023-01-26T20:08:49.514Z,-1.10
2023-01-26T20:10:21.128Z,-1.05
2023-01-26T20:11:52.706Z,-0.88